createdAt,value
2022-12-04T00:00:18.509Z,101756.31
2022-12-04T00:02:46.258Z,101763.22
2022-12-04T00:05:15.200Z,101761.47
2022-12-04T00:07:43.329Z,101770.47
2022-12-04T00:10:11.415Z,101766.66
2022-12-04T00:12:38.887Z,101762.72
2022-12-04T00:17:55.382Z,101754.28
2022-12-04T00:20:27.417Z,101757.56
2022-12-04T00:22:54.882Z,101744.22
2022-12-04T00:25:22.330Z,101744.59
2022-12-04T00:27:49.802Z,101743.94
2022-12-04T00:30:17.363Z,101747.41
2022-12-04T00:32:44.860Z,101740.34
2022-12-04T00:35:12.342Z,101739.53
2022-12-04T00:37:41.204Z,101736.41
2022-12-04T00:40:09.640Z,101734.44
2022-12-04T00:42:37.131Z,101734.78
2022-12-04T00:45:05.213Z,101740.34
2022-12-04T00:47:32.670Z,101747.69
2022-12-04T00:50:00.128Z,101742.38
2022-12-04T00:52:28.256Z,101736.97
2022-12-04T00:54:57.090Z,101740.41
2022-12-04T00:57:24.591Z,101735.34
2022-12-04T00:59:52.322Z,101733.84
2022-12-04T01:02:19.897Z,101729.22
2022-12-04T01:04:47.388Z,101734.69
2022-12-04T01:07:15.255Z,101739.34
2022-12-04T01:09:42.708Z,101744.03
2022-12-04T01:12:16.202Z,101748.47
2022-12-04T01:14:46.610Z,101736.69
2022-12-04T01:17:14.102Z,101741.03
2022-12-04T01:19:41.932Z,101738.19
2022-12-04T01:22:09.379Z,101742.94
2022-12-04T01:24:36.848Z,101733.91
2022-12-04T01:27:04.301Z,101735.69
2022-12-04T01:29:33.122Z,101734.47
2022-12-04T01:32:00.656Z,101730.13
2022-12-04T01:34:28.233Z,101735.84
2022-12-04T01:36:55.716Z,101732.84
2022-12-04T01:39:23.210Z,101725.84
2022-12-04T01:41:50.687Z,101731.19
2022-12-04T01:44:21.208Z,101734.53
2022-12-04T01:46:54.059Z,101727.72
2022-12-04T01:49:24.975Z,101736.34
2022-12-04T01:51:54.759Z,101731.03
2022-12-04T01:54:28.173Z,101726.75
2022-12-04T01:57:00.055Z,101728.47
2022-12-04T01:59:29.352Z,101726.88
2022-12-04T02:02:01.094Z,101722.75
2022-12-04T02:04:29.038Z,101719.13
2022-12-04T02:06:56.921Z,101726.38
2022-12-04T02:09:27.002Z,101719.25
2022-12-04T02:11:59.038Z,101712.69
2022-12-04T02:14:32.260Z,101721.59
2022-12-04T02:17:05.521Z,101719.84
2022-12-04T02:19:53.377Z,101719.31
2022-12-04T02:22:34.802Z,101716.38
2022-12-04T02:25:09.071Z,101710.19
2022-12-04T02:27:57.743Z,101714.25
2022-12-04T02:30:25.270Z,101706.19
2022-12-04T02:32:59.472Z,101710.09
2022-12-04T02:35:28.855Z,101715.50
2022-12-04T02:38:02.267Z,101704.25
2022-12-04T02:40:32.727Z,101710.25
2022-12-04T02:43:04.879Z,101708.28
2022-12-04T02:45:36.117Z,101708.78
2022-12-04T02:48:05.459Z,101716.50
2022-12-04T02:50:35.539Z,101718.78
2022-12-04T02:53:06.933Z,101720.19
2022-12-04T02:55:43.464Z,101716.34
2022-12-04T02:58:15.862Z,101722.84
2022-12-04T03:00:44.941Z,101715.06
2022-12-04T03:03:17.473Z,101711.50
2022-12-04T03:05:51.050Z,101712.84
2022-12-04T03:08:21.281Z,101717.13
2022-12-04T03:10:52.372Z,101709.19
2022-12-04T03:13:23.830Z,101702.69
2022-12-04T03:15:54.359Z,101702.13
2022-12-04T03:18:24.084Z,101696.91
2022-12-04T03:20:55.215Z,101696.72
2022-12-04T03:23:27.580Z,101700.59
2022-12-04T03:25:58.174Z,101694.19
2022-12-04T03:28:30.839Z,101697.41
2022-12-04T03:31:00.823Z,101697.84
2022-12-04T03:33:31.134Z,101693.47
2022-12-04T03:36:03.073Z,101691.97
2022-12-04T03:38:33.852Z,101697.59
2022-12-04T03:41:05.121Z,101691.25
2022-12-04T03:43:37.585Z,101696.28
2022-12-04T03:46:09.229Z,101698.31
2022-12-04T03:48:42.611Z,101698.94
2022-12-04T03:51:14.995Z,101694.25
2022-12-04T03:53:46.319Z,101700.00
2022-12-04T03:56:16.486Z,101693.19
2022-12-04T03:58:47.490Z,101687.16
2022-12-04T04:01:16.423Z,101690.34
2022-12-04T04:03:47.768Z,101689.50
2022-12-04T04:06:19.956Z,101690.66
2022-12-04T04:08:51.667Z,101688.16
2022-12-04T04:11:21.088Z,101680.72
2022-12-04T04:14:22.846Z,101681.00
2022-12-04T04:17:11.919Z,101682.31
2022-12-04T04:19:58.017Z,101683.66
2022-12-04T04:22:43.641Z,101690.28
2022-12-04T04:25:12.997Z,101687.75
2022-12-04T04:27:40.616Z,101694.19
2022-12-04T04:30:10.658Z,101686.50
2022-12-04T04:32:41.835Z,101688.34
2022-12-04T04:35:18.291Z,101685.34
2022-12-04T04:37:54.207Z,101688.63
2022-12-04T04:40:26.137Z,101689.03
2022-12-04T04:42:59.647Z,101690.78
2022-12-04T04:45:32.237Z,101697.59
2022-12-04T04:48:03.062Z,101698.19
2022-12-04T04:50:31.487Z,101695.59
2022-12-04T04:53:01.896Z,101699.34
2022-12-04T04:55:29.507Z,101704.19
2022-12-04T04:58:07.151Z,101701.53
2022-12-04T05:00:36.386Z,101696.78
2022-12-04T05:03:04.246Z,101697.16
2022-12-04T05:05:31.795Z,101695.94
2022-12-04T05:07:59.388Z,101702.09
2022-12-04T05:10:26.925Z,101693.94
2022-12-04T05:12:54.362Z,101699.19
2022-12-04T05:15:21.807Z,101692.75
2022-12-04T05:17:50.643Z,101694.44
2022-12-04T05:20:18.285Z,101691.94
2022-12-04T05:22:45.751Z,101700.03
2022-12-04T05:25:13.206Z,101705.53
2022-12-04T05:27:40.683Z,101708.00
2022-12-04T05:30:09.349Z,101710.94
2022-12-04T05:32:36.830Z,101707.75
2022-12-04T05:35:10.777Z,101713.00
2022-12-04T05:37:40.823Z,101715.63
2022-12-04T05:40:09.452Z,101704.75
2022-12-04T05:42:37.888Z,101706.59
2022-12-04T05:45:06.250Z,101709.59
2022-12-04T05:47:33.724Z,101706.09
2022-12-04T05:50:01.167Z,101704.78
2022-12-04T05:52:29.988Z,101699.59
2022-12-04T05:54:57.468Z,101702.94
2022-12-04T05:57:25.677Z,101701.47
2022-12-04T05:59:53.726Z,101702.19
2022-12-04T06:02:21.328Z,101699.19
2022-12-04T06:04:48.928Z,101702.53
2022-12-04T06:07:16.407Z,101698.41
2022-12-04T06:09:45.362Z,101696.91
2022-12-04T06:12:12.826Z,101692.94
2022-12-04T06:14:40.277Z,101699.13
2022-12-04T06:17:08.112Z,101704.53
2022-12-04T06:19:35.731Z,101699.91
2022-12-04T06:22:03.220Z,101693.53
2022-12-04T06:24:30.726Z,101697.91
2022-12-04T06:29:47.583Z,101702.81
2022-12-04T06:32:19.685Z,101707.38
2022-12-04T06:34:51.349Z,101708.03
2022-12-04T06:37:18.822Z,101712.88
2022-12-04T06:39:46.509Z,101713.09
2022-12-04T06:42:15.326Z,101707.50
2022-12-04T06:44:42.881Z,101706.09
2022-12-04T06:47:10.426Z,101708.75
2022-12-04T06:49:38.070Z,101709.19
2022-12-04T06:52:05.566Z,101723.53
2022-12-04T06:54:33.070Z,101717.22
2022-12-04T06:57:00.549Z,101711.09
2022-12-04T06:59:29.368Z,101714.03
2022-12-04T07:01:56.908Z,101725.25
2022-12-04T07:04:24.653Z,101713.69
2022-12-04T07:06:52.130Z,101726.84
2022-12-04T07:09:19.652Z,101727.09
2022-12-04T07:11:47.324Z,101718.66
2022-12-04T07:14:15.104Z,101726.63
2022-12-04T07:16:44.001Z,101721.44
2022-12-04T07:19:13.527Z,101721.09
2022-12-04T07:21:41.180Z,101716.50
2022-12-04T07:24:09.087Z,101726.47
2022-12-04T07:26:36.607Z,101723.72
2022-12-04T07:29:04.148Z,101723.44
2022-12-04T07:31:31.685Z,101721.28
2022-12-04T07:34:01.000Z,101730.03
2022-12-04T07:36:28.890Z,101723.44
2022-12-04T07:38:57.278Z,101710.44
2022-12-04T07:41:25.114Z,101709.19
2022-12-04T07:43:52.713Z,101710.41
2022-12-04T07:46:24.074Z,101715.53
2022-12-04T07:48:51.643Z,101721.03
2022-12-04T07:51:22.250Z,101723.63
2022-12-04T07:53:50.219Z,101733.72
2022-12-04T07:56:18.167Z,101726.13
2022-12-04T07:58:46.350Z,101726.94
2022-12-04T08:01:15.759Z,101725.78
2022-12-04T08:03:48.036Z,101728.13
2022-12-04T08:06:20.823Z,101725.22
2022-12-04T08:08:48.802Z,101726.44
2022-12-04T08:11:18.873Z,101729.63
2022-12-04T08:13:46.716Z,101726.22
2022-12-04T08:16:15.595Z,101723.09
2022-12-04T08:18:46.607Z,101732.38
2022-12-04T08:21:17.227Z,101732.69
2022-12-04T08:23:46.038Z,101729.53
2022-12-04T08:26:13.788Z,101720.78
2022-12-04T08:28:42.252Z,101724.28
2022-12-04T08:31:12.415Z,101729.44
2022-12-04T08:33:40.591Z,101730.19
2022-12-04T08:36:09.217Z,101733.19
2022-12-04T08:38:37.010Z,101729.47
2022-12-04T08:41:07.232Z,101724.50
2022-12-04T08:43:34.928Z,101720.84
2022-12-04T08:46:04.223Z,101716.84
2022-12-04T08:48:32.252Z,101729.63
2022-12-04T08:51:00.166Z,101726.97
2022-12-04T08:53:27.912Z,101727.28
2022-12-04T08:55:55.358Z,101725.22
2022-12-04T08:58:24.486Z,101721.66
2022-12-04T09:00:51.947Z,101725.50
2022-12-04T09:03:24.732Z,101726.34
2022-12-04T09:05:59.829Z,101727.53
2022-12-04T09:08:27.287Z,101733.09
2022-12-04T09:10:54.758Z,101725.03
2022-12-04T09:13:23.537Z,101727.50
2022-12-04T09:15:51.042Z,101739.13
2022-12-04T09:18:18.503Z,101739.94
2022-12-04T09:20:45.946Z,101734.44
2022-12-04T09:23:13.447Z,101737.44
2022-12-04T09:25:40.901Z,101737.69
2022-12-04T09:28:08.386Z,101728.13
2022-12-04T09:30:37.169Z,101732.09
2022-12-04T09:33:04.634Z,101724.72
2022-12-04T09:35:32.086Z,101725.84
2022-12-04T09:37:59.557Z,101721.69
2022-12-04T09:40:36.934Z,101723.34
2022-12-04T09:43:12.378Z,101720.19
2022-12-04T09:45:45.226Z,101712.59
2022-12-04T09:48:13.559Z,101716.44
2022-12-04T09:50:42.459Z,101718.88
2022-12-04T09:53:12.963Z,101711.47
2022-12-04T09:55:43.913Z,101709.78
2022-12-04T09:58:13.986Z,101716.47
2022-12-04T10:00:44.712Z,101714.13
2022-12-04T10:03:16.196Z,101707.81
2022-12-04T10:05:50.910Z,101711.97
2022-12-04T10:08:21.833Z,101715.56
2022-12-04T10:10:57.462Z,101710.66
2022-12-04T10:13:49.010Z,101699.72
2022-12-04T10:16:22.012Z,101701.19
2022-12-04T10:18:54.647Z,101700.69
2022-12-04T10:21:33.315Z,101703.34
2022-12-04T10:24:09.525Z,101691.91
2022-12-04T10:26:40.618Z,101694.38
2022-12-04T10:29:12.306Z,101691.06
2022-12-04T10:31:41.454Z,101688.09
2022-12-04T10:34:15.739Z,101695.72
2022-12-04T10:36:46.604Z,101690.25
2022-12-04T10:39:18.042Z,101687.13
2022-12-04T10:41:48.830Z,101687.78
2022-12-04T10:44:18.382Z,101688.44
2022-12-04T10:46:47.506Z,101685.13
2022-12-04T10:49:18.923Z,101685.47
2022-12-04T10:51:47.454Z,101690.59
2022-12-04T10:54:22.341Z,101681.31
2022-12-04T10:56:57.166Z,101688.44
2022-12-04T10:59:24.818Z,101684.47
2022-12-04T11:02:06.259Z,101673.91
2022-12-04T11:04:35.239Z,101673.22
2022-12-04T11:07:04.487Z,101665.28
2022-12-04T11:09:32.611Z,101663.44
2022-12-04T11:12:08.102Z,101669.88
2022-12-04T11:14:35.576Z,101674.03
2022-12-04T11:17:06.090Z,101674.03
2022-12-04T11:19:36.336Z,101671.38
2022-12-04T11:22:11.051Z,101669.41
2022-12-04T11:24:40.017Z,101669.75
2022-12-04T11:27:08.590Z,101670.56
2022-12-04T11:29:37.842Z,101664.75
2022-12-04T11:32:08.064Z,101658.31
2022-12-04T11:34:37.715Z,101661.47
2022-12-04T11:37:05.882Z,101661.94
2022-12-04T11:39:36.398Z,101661.25
2022-12-04T11:42:07.010Z,101662.94
2022-12-04T11:44:36.536Z,101657.66
2022-12-04T11:47:06.940Z,101647.53
2022-12-04T11:49:35.840Z,101644.22
2022-12-04T11:52:15.427Z,101643.38
2022-12-04T11:54:51.879Z,101641.75
2022-12-04T11:57:25.566Z,101644.72
2022-12-04T12:00:04.499Z,101639.59
2022-12-04T12:02:45.847Z,101639.25
2022-12-04T12:05:19.965Z,101639.44
2022-12-04T12:08:01.927Z,101641.25
2022-12-04T12:10:34.379Z,101635.94
2022-12-04T12:13:05.974Z,101642.06
2022-12-04T12:15:40.072Z,101638.09
2022-12-04T12:18:22.891Z,101636.91
2022-12-04T12:20:57.719Z,101638.44
2022-12-04T12:23:42.196Z,101634.28
2022-12-04T12:26:12.182Z,101632.47
2022-12-04T12:29:10.178Z,101628.16
2022-12-04T12:32:03.630Z,101623.84
2022-12-04T12:34:37.803Z,101621.69
2022-12-04T12:37:12.636Z,101629.16
2022-12-04T12:39:42.028Z,101618.06
2022-12-04T12:42:14.519Z,101614.88
2022-12-04T12:44:51.206Z,101615.38
2022-12-04T12:47:20.495Z,101605.94
2022-12-04T12:49:53.930Z,101602.13
2022-12-04T12:52:30.323Z,101600.78
2022-12-04T12:55:01.833Z,101597.78
2022-12-04T12:57:32.515Z,101594.31
2022-12-04T13:00:04.706Z,101593.34
2022-12-04T13:02:36.397Z,101589.53
2022-12-04T13:05:09.935Z,101577.91
2022-12-04T13:07:44.940Z,101572.66
2022-12-04T13:10:15.582Z,101570.66
2022-12-04T13:12:45.798Z,101570.66
2022-12-04T13:15:16.567Z,101567.81
2022-12-04T13:17:44.818Z,101576.75
2022-12-04T13:20:18.407Z,101569.78
2022-12-04T13:22:55.578Z,101564.34
2022-12-04T13:25:34.066Z,101573.25
2022-12-04T13:28:08.114Z,101578.41
2022-12-04T13:30:43.683Z,101565.63
2022-12-04T13:33:30.260Z,101577.41
2022-12-04T13:36:09.581Z,101573.25
2022-12-04T13:38:44.979Z,101576.25
2022-12-04T13:41:16.819Z,101575.25
2022-12-04T13:43:48.180Z,101572.44
2022-12-04T13:46:26.882Z,101579.38
2022-12-04T13:48:54.447Z,101581.88
2022-12-04T13:51:37.058Z,101585.38
2022-12-04T13:54:22.734Z,101588.34
2022-12-04T13:56:51.339Z,101584.34
2022-12-04T13:59:34.362Z,101584.16
2022-12-04T14:02:07.934Z,101595.13
2022-12-04T14:04:39.130Z,101588.66
2022-12-04T14:07:08.066Z,101581.38
2022-12-04T14:09:41.037Z,101592.16
2022-12-04T14:12:13.819Z,101585.69
2022-12-04T14:14:44.827Z,101586.81
2022-12-04T14:17:19.080Z,101586.97
2022-12-04T14:19:52.880Z,101580.66
2022-12-04T14:22:30.390Z,101578.00
2022-12-04T14:25:09.626Z,101585.66
2022-12-04T14:27:45.098Z,101580.34
2022-12-04T14:30:19.955Z,101581.81
2022-12-04T14:32:48.083Z,101579.69
2022-12-04T14:35:16.796Z,101569.56
2022-12-04T14:37:52.478Z,101565.31
2022-12-04T14:40:23.848Z,101571.41
2022-12-04T14:42:51.806Z,101564.63
2022-12-04T14:45:26.618Z,101560.13
2022-12-04T14:48:04.910Z,101567.28
2022-12-04T14:50:39.070Z,101558.63
2022-12-04T14:53:16.250Z,101551.34
2022-12-04T14:55:52.053Z,101554.84
2022-12-04T14:58:34.688Z,101549.34
2022-12-04T15:01:03.885Z,101551.47
2022-12-04T15:03:32.570Z,101556.59
2022-12-04T15:06:04.123Z,101555.97
2022-12-04T15:08:33.455Z,101552.47
2022-12-04T15:11:18.788Z,101551.81
2022-12-04T15:13:46.299Z,101549.03
2022-12-04T15:16:17.928Z,101552.31
2022-12-04T15:18:55.494Z,101549.50
2022-12-04T15:21:23.781Z,101546.00
2022-12-04T15:23:52.596Z,101542.53
2022-12-04T15:26:21.728Z,101540.44
2022-12-04T15:28:51.658Z,101545.69
2022-12-04T15:31:22.257Z,101551.13
2022-12-04T15:33:51.123Z,101540.03
2022-12-04T15:36:21.511Z,101541.22
2022-12-04T15:38:51.736Z,101533.88
2022-12-04T15:41:31.830Z,101529.75
2022-12-04T15:43:59.637Z,101521.97
2022-12-04T15:46:32.170Z,101526.06
2022-12-04T15:49:07.133Z,101529.25
2022-12-04T15:51:34.734Z,101525.56
2022-12-04T15:54:03.979Z,101524.75
2022-12-04T15:56:31.456Z,101525.25
2022-12-04T15:59:01.225Z,101536.72
2022-12-04T16:01:29.053Z,101538.81
2022-12-04T16:03:57.088Z,101531.69
2022-12-04T16:06:26.211Z,101533.81
2022-12-04T16:08:56.062Z,101536.00
2022-12-04T16:11:31.204Z,101528.34
2022-12-04T16:14:18.564Z,101536.78
2022-12-04T16:16:48.035Z,101534.28
2022-12-04T16:19:18.532Z,101541.47
2022-12-04T16:21:46.500Z,101542.47
2022-12-04T16:24:14.743Z,101537.00
2022-12-04T16:26:43.551Z,101538.09
2022-12-04T16:29:10.988Z,101539.81
2022-12-04T16:31:39.078Z,101536.13
2022-12-04T16:34:06.612Z,101545.13
2022-12-04T16:36:34.142Z,101546.28
2022-12-04T16:39:01.590Z,101548.88
2022-12-04T16:41:29.130Z,101555.72
2022-12-04T16:44:00.386Z,101557.88
2022-12-04T16:46:29.171Z,101551.84
2022-12-04T16:48:56.866Z,101545.56
2022-12-04T16:51:26.093Z,101545.91
2022-12-04T16:53:54.584Z,101551.84
2022-12-04T16:56:22.330Z,101550.38
2022-12-04T16:58:50.139Z,101554.56
2022-12-04T17:01:22.636Z,101563.78
2022-12-04T17:03:50.633Z,101556.50
2022-12-04T17:06:18.395Z,101551.00
2022-12-04T17:08:46.043Z,101551.22
2022-12-04T17:11:14.733Z,101556.97
2022-12-04T17:13:42.702Z,101565.31
2022-12-04T17:16:12.990Z,101556.97
2022-12-04T17:18:43.741Z,101567.06
2022-12-04T17:21:12.604Z,101566.28
2022-12-04T17:23:40.525Z,101566.91
2022-12-04T17:26:10.085Z,101557.63
2022-12-04T17:28:37.979Z,101566.09
2022-12-04T17:31:06.180Z,101569.41
2022-12-04T17:33:34.171Z,101561.13
2022-12-04T17:36:03.378Z,101564.72
2022-12-04T17:38:30.904Z,101578.84
2022-12-04T17:41:00.591Z,101571.56
2022-12-04T17:43:28.994Z,101574.53
2022-12-04T17:45:56.807Z,101583.31
2022-12-04T17:48:24.534Z,101582.13
2022-12-04T17:50:52.250Z,101583.00
2022-12-04T17:53:21.102Z,101587.59
2022-12-04T17:55:50.913Z,101589.78
2022-12-04T17:58:18.524Z,101590.50
2022-12-04T18:00:46.044Z,101591.28
2022-12-04T18:03:13.760Z,101582.63
2022-12-04T18:05:41.237Z,101595.72
2022-12-04T18:08:08.792Z,101591.81
2022-12-04T18:10:38.203Z,101587.66
2022-12-04T18:13:06.520Z,101591.94
2022-12-04T18:15:35.483Z,101593.16
2022-12-04T18:18:02.934Z,101590.31
2022-12-04T18:20:30.398Z,101591.16
2022-12-04T18:22:59.085Z,101587.03
2022-12-04T18:25:26.574Z,101578.72
2022-12-04T18:27:59.406Z,101591.09
2022-12-04T18:30:26.859Z,101582.63
2022-12-04T18:32:55.186Z,101589.94
2022-12-04T18:35:22.660Z,101587.44
2022-12-04T18:37:50.182Z,101583.97
2022-12-04T18:40:17.844Z,101589.44
2022-12-04T18:42:45.287Z,101586.94
2022-12-04T18:45:14.170Z,101586.28
2022-12-04T18:47:41.654Z,101585.09
2022-12-04T18:50:09.778Z,101579.84
2022-12-04T18:52:38.314Z,101570.88
2022-12-04T18:55:06.224Z,101573.19
2022-12-04T18:57:34.218Z,101584.16
2022-12-04T19:00:05.270Z,101578.22
2022-12-04T19:02:34.166Z,101583.44
2022-12-04T19:05:03.976Z,101577.53
2022-12-04T19:07:31.464Z,101580.34
2022-12-04T19:10:14.277Z,101583.38
2022-12-04T19:12:41.897Z,101595.94
2022-12-04T19:15:09.955Z,101590.41
2022-12-04T19:17:38.731Z,101576.81
2022-12-04T19:20:08.003Z,101574.16
2022-12-04T19:22:35.433Z,101579.38
2022-12-04T19:25:04.374Z,101587.94
2022-12-04T19:27:32.000Z,101584.16
2022-12-04T19:29:59.656Z,101573.53
2022-12-04T19:32:27.181Z,101571.41
2022-12-04T19:34:56.062Z,101569.56
2022-12-04T19:37:23.507Z,101576.31
2022-12-04T19:39:50.963Z,101569.31
2022-12-04T19:42:18.413Z,101568.50
2022-12-04T19:44:48.719Z,101571.47
2022-12-04T19:47:16.794Z,101572.97
2022-12-04T19:49:44.263Z,101563.53
2022-12-04T19:52:13.038Z,101572.34
2022-12-04T19:54:40.614Z,101570.13
2022-12-04T19:57:08.066Z,101568.59
2022-12-04T19:59:38.594Z,101577.34
2022-12-04T20:02:10.222Z,101570.94
2022-12-04T20:04:38.734Z,101566.09
2022-12-04T20:07:06.511Z,101573.13
2022-12-04T20:09:35.295Z,101570.53
2022-12-04T20:12:03.446Z,101578.81
2022-12-04T20:14:30.895Z,101569.88
2022-12-04T20:16:59.519Z,101559.53
2022-12-04T20:19:27.035Z,101553.16
2022-12-04T20:21:59.249Z,101547.28
2022-12-04T20:24:27.390Z,101546.63
2022-12-04T20:26:56.170Z,101551.09
2022-12-04T20:29:23.711Z,101554.94
2022-12-04T20:31:51.177Z,101544.28
2022-12-04T20:34:19.752Z,101544.88
2022-12-04T20:36:50.788Z,101547.91
2022-12-04T20:39:19.532Z,101549.94
2022-12-04T20:41:47.307Z,101541.31
2022-12-04T20:44:18.577Z,101541.09
2022-12-04T20:46:46.777Z,101543.66
2022-12-04T20:49:21.207Z,101547.44
2022-12-04T20:51:49.574Z,101549.91
2022-12-04T20:54:18.997Z,101549.22
2022-12-04T20:56:48.572Z,101542.44
2022-12-04T20:59:18.940Z,101548.53
2022-12-04T21:01:46.622Z,101543.78
2022-12-04T21:04:14.128Z,101542.56
2022-12-04T21:06:42.771Z,101541.25
2022-12-04T21:09:13.654Z,101551.69
2022-12-04T21:11:42.705Z,101536.19
2022-12-04T21:14:30.355Z,101545.06
2022-12-04T21:16:59.722Z,101545.69
2022-12-04T21:19:27.454Z,101537.28
2022-12-04T21:21:55.425Z,101534.75
2022-12-04T21:24:24.007Z,101529.81
2022-12-04T21:26:51.461Z,101525.88
2022-12-04T21:29:18.984Z,101525.63
2022-12-04T21:31:46.548Z,101521.31
2022-12-04T21:34:17.715Z,101527.97
2022-12-04T21:36:46.148Z,101522.97
2022-12-04T21:39:14.333Z,101523.38
2022-12-04T21:41:59.631Z,101527.22
2022-12-04T21:44:27.163Z,101523.34
2022-12-04T21:46:54.638Z,101536.31
2022-12-04T21:49:23.511Z,101529.41
2022-12-04T21:51:58.853Z,101527.53
2022-12-04T21:54:27.230Z,101534.63
2022-12-04T21:56:55.052Z,101531.03
2022-12-04T21:59:22.519Z,101531.63
2022-12-04T22:01:50.067Z,101533.75
2022-12-04T22:04:17.886Z,101533.50
2022-12-04T22:06:46.677Z,101519.03
2022-12-04T22:09:14.654Z,101535.00
2022-12-04T22:11:42.752Z,101529.75
2022-12-04T22:14:10.750Z,101531.34
2022-12-04T22:16:42.525Z,101529.16
2022-12-04T22:19:10.810Z,101533.31
2022-12-04T22:21:38.401Z,101534.00
2022-12-04T22:24:08.412Z,101530.84
2022-12-04T22:26:35.851Z,101528.69
2022-12-04T22:29:20.755Z,101532.88
2022-12-04T22:31:51.268Z,101533.59
2022-12-04T22:34:18.807Z,101530.34
2022-12-04T22:36:46.294Z,101517.31
2022-12-04T22:39:15.144Z,101518.41
2022-12-04T22:41:42.705Z,101528.06
2022-12-04T22:44:10.259Z,101517.56
2022-12-04T22:46:38.255Z,101516.78
2022-12-04T22:49:06.071Z,101517.44
2022-12-04T22:51:33.794Z,101507.44
2022-12-04T22:54:01.780Z,101504.63
2022-12-04T22:56:32.033Z,101509.38
2022-12-04T22:59:00.450Z,101513.69
2022-12-04T23:01:29.543Z,101499.19
2022-12-04T23:03:57.555Z,101506.00
2022-12-04T23:06:26.489Z,101501.78
2022-12-04T23:08:55.596Z,101498.25
2022-12-04T23:11:24.083Z,101495.75
2022-12-04T23:13:54.288Z,101493.28
2022-12-04T23:16:23.167Z,101493.09
2022-12-04T23:18:51.227Z,101492.69
2022-12-04T23:21:20.169Z,101482.41
2022-12-04T23:23:48.534Z,101480.03
2022-12-04T23:26:17.773Z,101481.81
2022-12-04T23:28:45.901Z,101480.63
2022-12-04T23:31:15.452Z,101482.53
2022-12-04T23:33:43.333Z,101471.97
2022-12-04T23:36:12.417Z,101474.72
2022-12-04T23:38:41.529Z,101471.78
2022-12-04T23:41:12.053Z,101473.06
2022-12-04T23:43:40.324Z,101466.47
2022-12-04T23:46:11.364Z,101475.16
2022-12-04T23:48:42.511Z,101467.75
2022-12-04T23:51:11.425Z,101459.88
2022-12-04T23:53:39.376Z,101455.03
2022-12-04T23:56:08.550Z,101449.72
2022-12-04T23:58:37.201Z,101457.50
